sensor_id;sensor_type;location;lat;lon;timestamp;temperature;humidity
49379;DHT22;35254;47.990;-1.608;2023-01-23T00:00:39;18.50;48.40
49379;DHT22;35254;47.990;-1.608;2023-01-23T00:03:05;18.50;48.50
49379;DHT22;35254;47.990;-1.608;2023-01-23T00:05:31;18.50;48.20
49379;DHT22;35254;47.990;-1.608;2023-01-23T00:07:57;18.50;48.10
49379;DHT22;35254;47.990;-1.608;2023-01-23T00:10:22;18.50;48.50
49379;DHT22;35254;47.990;-1.608;2023-01-23T00:12:48;18.40;48.70
49379;DHT22;35254;47.990;-1.608;2023-01-23T00:15:14;18.40;48.10
49379;DHT22;35254;47.990;-1.608;2023-01-23T00:17:40;18.40;48.80
49379;DHT22;35254;47.990;-1.608;2023-01-23T00:20:08;18.40;48.10
49379;DHT22;35254;47.990;-1.608;2023-01-23T00:22:34;18.40;48.70
49379;DHT22;35254;47.990;-1.608;2023-01-23T00:25:00;18.40;48.30
49379;DHT22;35254;47.990;-1.608;2023-01-23T00:27:25;18.40;48.80
49379;DHT22;35254;47.990;-1.608;2023-01-23T00:29:52;18.40;48.20
49379;DHT22;35254;47.990;-1.608;2023-01-23T00:32:18;18.30;48.90
49379;DHT22;35254;47.990;-1.608;2023-01-23T00:34:44;18.40;48.60
49379;DHT22;35254;47.990;-1.608;2023-01-23T00:37:10;18.40;48.50
49379;DHT22;35254;47.990;-1.608;2023-01-23T00:39:35;18.30;48.40
49379;DHT22;35254;47.990;-1.608;2023-01-23T00:42:01;18.30;48.60
49379;DHT22;35254;47.990;-1.608;2023-01-23T00:44:27;18.30;48.00
49379;DHT22;35254;47.990;-1.608;2023-01-23T00:46:52;18.30;48.10
49379;DHT22;35254;47.990;-1.608;2023-01-23T00:49:18;18.30;48.20
49379;DHT22;35254;47.990;-1.608;2023-01-23T00:51:44;18.30;48.50
49379;DHT22;35254;47.990;-1.608;2023-01-23T00:54:10;18.20;47.60
49379;DHT22;35254;47.990;-1.608;2023-01-23T00:56:36;18.30;48.10
49379;DHT22;35254;47.990;-1.608;2023-01-23T00:59:02;18.20;47.30
49379;DHT22;35254;47.990;-1.608;2023-01-23T01:01:27;18.20;47.80
49379;DHT22;35254;47.990;-1.608;2023-01-23T01:03:56;18.20;47.60
49379;DHT22;35254;47.990;-1.608;2023-01-23T01:06:22;18.20;47.70
49379;DHT22;35254;47.990;-1.608;2023-01-23T01:08:48;18.20;47.30
49379;DHT22;35254;47.990;-1.608;2023-01-23T01:11:13;18.20;47.20
49379;DHT22;35254;47.990;-1.608;2023-01-23T01:13:39;18.20;47.50
49379;DHT22;35254;47.990;-1.608;2023-01-23T01:16:05;18.20;47.90
49379;DHT22;35254;47.990;-1.608;2023-01-23T01:18:32;18.20;47.60
49379;DHT22;35254;47.990;-1.608;2023-01-23T01:20:58;18.20;47.60
49379;DHT22;35254;47.990;-1.608;2023-01-23T01:23:24;18.20;47.70
49379;DHT22;35254;47.990;-1.608;2023-01-23T01:25:50;18.20;47.80
49379;DHT22;35254;47.990;-1.608;2023-01-23T01:28:16;18.10;47.30
49379;DHT22;35254;47.990;-1.608;2023-01-23T01:30:41;18.10;48.00
49379;DHT22;35254;47.990;-1.608;2023-01-23T01:33:07;18.20;47.60
49379;DHT22;35254;47.990;-1.608;2023-01-23T01:35:33;18.10;47.20
49379;DHT22;35254;47.990;-1.608;2023-01-23T01:37:59;18.10;47.40
49379;DHT22;35254;47.990;-1.608;2023-01-23T01:40:28;18.10;46.80
49379;DHT22;35254;47.990;-1.608;2023-01-23T01:43:00;18.10;47.50
49379;DHT22;35254;47.990;-1.608;2023-01-23T01:45:59;18.10;47.20
49379;DHT22;35254;47.990;-1.608;2023-01-23T01:48:44;18.10;46.80
49379;DHT22;35254;47.990;-1.608;2023-01-23T01:53:49;18.00;46.00
49379;DHT22;35254;47.990;-1.608;2023-01-23T01:56:17;18.10;46.70
49379;DHT22;35254;47.990;-1.608;2023-01-23T01:58:46;18.10;46.10
49379;DHT22;35254;47.990;-1.608;2023-01-23T02:01:12;18.10;46.40
49379;DHT22;35254;47.990;-1.608;2023-01-23T02:03:38;18.10;45.80
49379;DHT22;35254;47.990;-1.608;2023-01-23T02:06:05;18.00;46.20
49379;DHT22;35254;47.990;-1.608;2023-01-23T02:08:52;18.10;45.80
49379;DHT22;35254;47.990;-1.608;2023-01-23T02:11:21;18.10;46.30
49379;DHT22;35254;47.990;-1.608;2023-01-23T02:13:46;18.00;46.00
49379;DHT22;35254;47.990;-1.608;2023-01-23T02:16:16;18.00;46.00
49379;DHT22;35254;47.990;-1.608;2023-01-23T02:18:44;18.00;46.10
49379;DHT22;35254;47.990;-1.608;2023-01-23T02:21:13;18.00;46.30
49379;DHT22;35254;47.990;-1.608;2023-01-23T02:26:15;18.00;45.70
49379;DHT22;35254;47.990;-1.608;2023-01-23T02:28:44;18.00;45.90
49379;DHT22;35254;47.990;-1.608;2023-01-23T02:31:11;17.90;45.90
49379;DHT22;35254;47.990;-1.608;2023-01-23T02:36:03;17.90;46.00
49379;DHT22;35254;47.990;-1.608;2023-01-23T02:38:41;17.90;45.90
49379;DHT22;35254;47.990;-1.608;2023-01-23T02:41:11;17.90;46.00
49379;DHT22;35254;47.990;-1.608;2023-01-23T02:43:38;17.90;45.60
49379;DHT22;35254;47.990;-1.608;2023-01-23T02:46:07;17.90;45.80
49379;DHT22;35254;47.990;-1.608;2023-01-23T02:48:34;17.90;45.70
49379;DHT22;35254;47.990;-1.608;2023-01-23T02:50:59;17.90;45.80
49379;DHT22;35254;47.990;-1.608;2023-01-23T02:53:25;17.80;45.20
49379;DHT22;35254;47.990;-1.608;2023-01-23T02:55:52;17.80;45.60
49379;DHT22;35254;47.990;-1.608;2023-01-23T02:58:17;17.90;45.60
49379;DHT22;35254;47.990;-1.608;2023-01-23T03:01:02;17.80;45.30
49379;DHT22;35254;47.990;-1.608;2023-01-23T03:03:28;17.90;45.30
49379;DHT22;35254;47.990;-1.608;2023-01-23T03:05:55;17.80;45.20
49379;DHT22;35254;47.990;-1.608;2023-01-23T03:08:22;17.80;44.90
49379;DHT22;35254;47.990;-1.608;2023-01-23T03:10:47;17.70;45.40
49379;DHT22;35254;47.990;-1.608;2023-01-23T03:13:13;17.80;44.80
49379;DHT22;35254;47.990;-1.608;2023-01-23T03:15:39;17.70;44.80
49379;DHT22;35254;47.990;-1.608;2023-01-23T03:18:07;17.70;44.70
49379;DHT22;35254;47.990;-1.608;2023-01-23T03:20:40;17.70;45.10
49379;DHT22;35254;47.990;-1.608;2023-01-23T03:23:06;17.70;44.70
49379;DHT22;35254;47.990;-1.608;2023-01-23T03:25:32;17.70;44.90
49379;DHT22;35254;47.990;-1.608;2023-01-23T03:27:57;17.70;43.70
49379;DHT22;35254;47.990;-1.608;2023-01-23T03:30:23;17.70;44.30
49379;DHT22;35254;47.990;-1.608;2023-01-23T03:32:50;17.70;44.00
49379;DHT22;35254;47.990;-1.608;2023-01-23T03:35:17;17.70;44.40
49379;DHT22;35254;47.990;-1.608;2023-01-23T03:37:45;17.70;44.10
49379;DHT22;35254;47.990;-1.608;2023-01-23T03:40:24;17.70;44.60
49379;DHT22;35254;47.990;-1.608;2023-01-23T03:43:30;17.70;43.80
49379;DHT22;35254;47.990;-1.608;2023-01-23T03:45:56;17.70;43.50
49379;DHT22;35254;47.990;-1.608;2023-01-23T03:48:22;17.70;43.60
49379;DHT22;35254;47.990;-1.608;2023-01-23T03:50:48;17.70;43.30
49379;DHT22;35254;47.990;-1.608;2023-01-23T03:53:13;17.70;43.10
49379;DHT22;35254;47.990;-1.608;2023-01-23T03:55:39;17.70;43.00
49379;DHT22;35254;47.990;-1.608;2023-01-23T03:58:04;17.70;42.80
49379;DHT22;35254;47.990;-1.608;2023-01-23T04:00:30;17.70;42.70
49379;DHT22;35254;47.990;-1.608;2023-01-23T04:02:56;17.70;42.30
49379;DHT22;35254;47.990;-1.608;2023-01-23T04:05:21;17.60;42.30
49379;DHT22;35254;47.990;-1.608;2023-01-23T04:07:47;17.70;42.20
49379;DHT22;35254;47.990;-1.608;2023-01-23T04:10:14;17.60;42.20
49379;DHT22;35254;47.990;-1.608;2023-01-23T04:12:41;17.70;42.00
49379;DHT22;35254;47.990;-1.608;2023-01-23T04:15:08;17.70;42.10
49379;DHT22;35254;47.990;-1.608;2023-01-23T04:17:33;17.70;42.00
49379;DHT22;35254;47.990;-1.608;2023-01-23T04:19:59;17.60;41.90
49379;DHT22;35254;47.990;-1.608;2023-01-23T04:22:25;17.60;41.80
49379;DHT22;35254;47.990;-1.608;2023-01-23T04:24:50;17.60;41.70
49379;DHT22;35254;47.990;-1.608;2023-01-23T04:27:16;17.60;41.70
49379;DHT22;35254;47.990;-1.608;2023-01-23T04:29:41;17.60;41.70
49379;DHT22;35254;47.990;-1.608;2023-01-23T04:32:07;17.60;41.50
49379;DHT22;35254;47.990;-1.608;2023-01-23T04:34:34;17.60;41.50
49379;DHT22;35254;47.990;-1.608;2023-01-23T04:37:00;17.60;41.50
49379;DHT22;35254;47.990;-1.608;2023-01-23T04:39:25;17.60;41.60
49379;DHT22;35254;47.990;-1.608;2023-01-23T04:41:51;17.60;41.60
49379;DHT22;35254;47.990;-1.608;2023-01-23T04:44:16;17.60;41.50
49379;DHT22;35254;47.990;-1.608;2023-01-23T04:46:46;17.60;41.80
49379;DHT22;35254;47.990;-1.608;2023-01-23T04:49:14;17.50;41.70
49379;DHT22;35254;47.990;-1.608;2023-01-23T04:51:40;17.60;41.70
49379;DHT22;35254;47.990;-1.608;2023-01-23T04:54:05;17.50;41.70
49379;DHT22;35254;47.990;-1.608;2023-01-23T04:56:31;17.60;41.60
49379;DHT22;35254;47.990;-1.608;2023-01-23T04:58:57;17.50;41.60
49379;DHT22;35254;47.990;-1.608;2023-01-23T05:01:22;17.50;41.60
49379;DHT22;35254;47.990;-1.608;2023-01-23T05:03:49;17.50;41.60
49379;DHT22;35254;47.990;-1.608;2023-01-23T05:06:16;17.60;41.60
49379;DHT22;35254;47.990;-1.608;2023-01-23T05:08:41;17.50;41.40
49379;DHT22;35254;47.990;-1.608;2023-01-23T05:11:07;17.50;41.60
49379;DHT22;35254;47.990;-1.608;2023-01-23T05:13:32;17.50;41.40
49379;DHT22;35254;47.990;-1.608;2023-01-23T05:15:58;17.50;41.60
49379;DHT22;35254;47.990;-1.608;2023-01-23T05:18:24;17.50;41.70
49379;DHT22;35254;47.990;-1.608;2023-01-23T05:20:49;17.50;41.50
49379;DHT22;35254;47.990;-1.608;2023-01-23T05:23:15;17.50;41.50
49379;DHT22;35254;47.990;-1.608;2023-01-23T05:25:41;17.50;41.50
49379;DHT22;35254;47.990;-1.608;2023-01-23T05:28:06;17.50;41.60
49379;DHT22;35254;47.990;-1.608;2023-01-23T05:30:32;17.50;41.70
49379;DHT22;35254;47.990;-1.608;2023-01-23T05:32:58;17.50;41.70
49379;DHT22;35254;47.990;-1.608;2023-01-23T05:35:23;17.50;41.70
49379;DHT22;35254;47.990;-1.608;2023-01-23T05:37:50;17.50;41.70
49379;DHT22;35254;47.990;-1.608;2023-01-23T05:40:16;17.50;41.70
49379;DHT22;35254;47.990;-1.608;2023-01-23T05:42:42;17.50;41.70
49379;DHT22;35254;47.990;-1.608;2023-01-23T05:45:08;17.50;41.80
49379;DHT22;35254;47.990;-1.608;2023-01-23T05:47:34;17.40;41.70
49379;DHT22;35254;47.990;-1.608;2023-01-23T05:50:00;17.50;41.70
49379;DHT22;35254;47.990;-1.608;2023-01-23T05:52:26;17.50;41.80
49379;DHT22;35254;47.990;-1.608;2023-01-23T05:54:52;17.50;41.80
49379;DHT22;35254;47.990;-1.608;2023-01-23T05:57:18;17.50;41.90
49379;DHT22;35254;47.990;-1.608;2023-01-23T05:59:43;17.50;41.80
49379;DHT22;35254;47.990;-1.608;2023-01-23T06:02:09;17.50;41.50
49379;DHT22;35254;47.990;-1.608;2023-01-23T06:04:35;17.50;41.70
49379;DHT22;35254;47.990;-1.608;2023-01-23T06:07:01;17.50;41.90
49379;DHT22;35254;47.990;-1.608;2023-01-23T06:09:26;17.50;41.80
49379;DHT22;35254;47.990;-1.608;2023-01-23T06:11:52;17.50;41.70
49379;DHT22;35254;47.990;-1.608;2023-01-23T06:14:17;17.50;41.60
49379;DHT22;35254;47.990;-1.608;2023-01-23T06:16:43;17.60;41.60
49379;DHT22;35254;47.990;-1.608;2023-01-23T06:19:09;17.60;41.60
49379;DHT22;35254;47.990;-1.608;2023-01-23T06:21:35;17.50;41.40
49379;DHT22;35254;47.990;-1.608;2023-01-23T06:24:00;17.50;41.60
49379;DHT22;35254;47.990;-1.608;2023-01-23T06:26:26;17.60;41.40
49379;DHT22;35254;47.990;-1.608;2023-01-23T06:28:52;17.50;41.50
49379;DHT22;35254;47.990;-1.608;2023-01-23T06:31:18;17.50;41.50
49379;DHT22;35254;47.990;-1.608;2023-01-23T06:33:47;17.50;41.80
49379;DHT22;35254;47.990;-1.608;2023-01-23T06:36:13;17.50;41.60
49379;DHT22;35254;47.990;-1.608;2023-01-23T06:38:39;17.50;41.90
49379;DHT22;35254;47.990;-1.608;2023-01-23T06:41:04;17.50;42.20
49379;DHT22;35254;47.990;-1.608;2023-01-23T06:43:30;17.50;42.30
49379;DHT22;35254;47.990;-1.608;2023-01-23T06:45:55;17.50;42.20
49379;DHT22;35254;47.990;-1.608;2023-01-23T06:48:21;17.50;42.10
49379;DHT22;35254;47.990;-1.608;2023-01-23T06:50:47;17.60;42.10
49379;DHT22;35254;47.990;-1.608;2023-01-23T06:53:14;17.60;42.10
49379;DHT22;35254;47.990;-1.608;2023-01-23T06:55:40;17.60;42.10
49379;DHT22;35254;47.990;-1.608;2023-01-23T06:58:06;17.60;42.00
49379;DHT22;35254;47.990;-1.608;2023-01-23T07:00:32;17.60;41.90
49379;DHT22;35254;47.990;-1.608;2023-01-23T07:03:01;17.60;41.90
49379;DHT22;35254;47.990;-1.608;2023-01-23T07:05:30;17.60;42.10
49379;DHT22;35254;47.990;-1.608;2023-01-23T07:07:55;17.60;42.20
49379;DHT22;35254;47.990;-1.608;2023-01-23T07:10:22;17.60;42.20
49379;DHT22;35254;47.990;-1.608;2023-01-23T07:12:48;17.70;42.50
49379;DHT22;35254;47.990;-1.608;2023-01-23T07:15:15;17.60;42.70
49379;DHT22;35254;47.990;-1.608;2023-01-23T07:17:41;17.60;42.70
49379;DHT22;35254;47.990;-1.608;2023-01-23T07:20:07;17.60;42.70
49379;DHT22;35254;47.990;-1.608;2023-01-23T07:22:33;17.70;43.30
49379;DHT22;35254;47.990;-1.608;2023-01-23T07:24:59;17.70;43.20
49379;DHT22;35254;47.990;-1.608;2023-01-23T07:27:24;17.70;43.20
49379;DHT22;35254;47.990;-1.608;2023-01-23T07:29:50;17.70;43.20
49379;DHT22;35254;47.990;-1.608;2023-01-23T07:32:16;17.70;43.40
49379;DHT22;35254;47.990;-1.608;2023-01-23T07:34:41;17.70;43.40
49379;DHT22;35254;47.990;-1.608;2023-01-23T07:37:07;17.70;43.40
49379;DHT22;35254;47.990;-1.608;2023-01-23T07:39:32;17.80;43.90
49379;DHT22;35254;47.990;-1.608;2023-01-23T07:41:58;17.80;44.10
49379;DHT22;35254;47.990;-1.608;2023-01-23T07:44:24;17.80;44.00
49379;DHT22;35254;47.990;-1.608;2023-01-23T07:46:50;17.90;44.10
49379;DHT22;35254;47.990;-1.608;2023-01-23T07:49:15;17.80;44.10
49379;DHT22;35254;47.990;-1.608;2023-01-23T07:51:41;17.80;47.70
49379;DHT22;35254;47.990;-1.608;2023-01-23T07:54:07;17.90;51.50
49379;DHT22;35254;47.990;-1.608;2023-01-23T07:56:32;17.90;53.20
49379;DHT22;35254;47.990;-1.608;2023-01-23T07:58:59;17.80;52.10
49379;DHT22;35254;47.990;-1.608;2023-01-23T08:01:25;18.00;56.10
49379;DHT22;35254;47.990;-1.608;2023-01-23T08:03:51;17.90;49.50
49379;DHT22;35254;47.990;-1.608;2023-01-23T08:06:17;17.90;47.70
49379;DHT22;35254;47.990;-1.608;2023-01-23T08:08:43;18.00;46.60
49379;DHT22;35254;47.990;-1.608;2023-01-23T08:11:09;18.10;45.80
49379;DHT22;35254;47.990;-1.608;2023-01-23T08:13:37;18.00;45.20
49379;DHT22;35254;47.990;-1.608;2023-01-23T08:16:03;18.00;44.90
49379;DHT22;35254;47.990;-1.608;2023-01-23T08:18:30;18.00;44.80
49379;DHT22;35254;47.990;-1.608;2023-01-23T08:20:57;18.10;44.80
49379;DHT22;35254;47.990;-1.608;2023-01-23T08:23:28;18.10;44.60
49379;DHT22;35254;47.990;-1.608;2023-01-23T08:25:55;18.10;48.90
49379;DHT22;35254;47.990;-1.608;2023-01-23T08:28:22;18.10;45.90
49379;DHT22;35254;47.990;-1.608;2023-01-23T08:30:49;18.10;44.90
49379;DHT22;35254;47.990;-1.608;2023-01-23T08:33:15;18.20;45.20
49379;DHT22;35254;47.990;-1.608;2023-01-23T08:35:55;18.10;44.70
49379;DHT22;35254;47.990;-1.608;2023-01-23T08:38:21;18.20;44.40
49379;DHT22;35254;47.990;-1.608;2023-01-23T08:40:48;18.20;44.30
49379;DHT22;35254;47.990;-1.608;2023-01-23T08:43:15;18.20;44.10
49379;DHT22;35254;47.990;-1.608;2023-01-23T08:45:48;18.20;43.70
49379;DHT22;35254;47.990;-1.608;2023-01-23T08:48:14;18.20;43.70
49379;DHT22;35254;47.990;-1.608;2023-01-23T08:50:40;18.20;43.80
49379;DHT22;35254;47.990;-1.608;2023-01-23T08:53:06;18.30;43.70
49379;DHT22;35254;47.990;-1.608;2023-01-23T08:55:32;18.30;43.60
49379;DHT22;35254;47.990;-1.608;2023-01-23T08:58:00;18.40;43.50
49379;DHT22;35254;47.990;-1.608;2023-01-23T09:00:26;18.40;43.30
49379;DHT22;35254;47.990;-1.608;2023-01-23T09:02:52;18.40;43.30
49379;DHT22;35254;47.990;-1.608;2023-01-23T09:05:18;18.40;43.20
49379;DHT22;35254;47.990;-1.608;2023-01-23T09:07:44;18.50;43.30
49379;DHT22;35254;47.990;-1.608;2023-01-23T09:10:10;18.50;43.10
49379;DHT22;35254;47.990;-1.608;2023-01-23T09:12:37;18.50;42.80
49379;DHT22;35254;47.990;-1.608;2023-01-23T09:15:03;18.50;42.50
49379;DHT22;35254;47.990;-1.608;2023-01-23T09:17:29;18.50;42.50
49379;DHT22;35254;47.990;-1.608;2023-01-23T09:19:55;18.50;42.60
49379;DHT22;35254;47.990;-1.608;2023-01-23T09:22:22;18.50;42.70
49379;DHT22;35254;47.990;-1.608;2023-01-23T09:24:48;18.50;42.80
49379;DHT22;35254;47.990;-1.608;2023-01-23T09:27:13;18.50;42.80
49379;DHT22;35254;47.990;-1.608;2023-01-23T09:29:39;18.50;42.80
49379;DHT22;35254;47.990;-1.608;2023-01-23T09:32:05;18.60;43.00
49379;DHT22;35254;47.990;-1.608;2023-01-23T09:34:30;18.60;42.80
49379;DHT22;35254;47.990;-1.608;2023-01-23T09:36:56;18.50;42.80
49379;DHT22;35254;47.990;-1.608;2023-01-23T09:39:22;18.60;42.90
49379;DHT22;35254;47.990;-1.608;2023-01-23T09:41:48;18.60;42.90
49379;DHT22;35254;47.990;-1.608;2023-01-23T09:44:37;18.60;42.70
49379;DHT22;35254;47.990;-1.608;2023-01-23T09:47:31;18.60;42.40
49379;DHT22;35254;47.990;-1.608;2023-01-23T09:49:55;18.60;42.50
49379;DHT22;35254;47.990;-1.608;2023-01-23T09:52:31;18.70;42.70
49379;DHT22;35254;47.990;-1.608;2023-01-23T09:57:41;18.70;42.90
49379;DHT22;35254;47.990;-1.608;2023-01-23T10:00:42;18.70;43.10
49379;DHT22;35254;47.990;-1.608;2023-01-23T10:03:12;18.80;43.00
49379;DHT22;35254;47.990;-1.608;2023-01-23T10:05:50;18.80;42.80
49379;DHT22;35254;47.990;-1.608;2023-01-23T10:08:38;18.80;42.70
49379;DHT22;35254;47.990;-1.608;2023-01-23T10:11:14;18.80;43.00
49379;DHT22;35254;47.990;-1.608;2023-01-23T10:17:06;18.90;43.20
49379;DHT22;35254;47.990;-1.608;2023-01-23T10:22:27;19.00;43.20
49379;DHT22;35254;47.990;-1.608;2023-01-23T10:24:56;19.10;43.20
49379;DHT22;35254;47.990;-1.608;2023-01-23T10:27:25;19.00;43.20
49379;DHT22;35254;47.990;-1.608;2023-01-23T10:30:06;19.10;43.00
49379;DHT22;35254;47.990;-1.608;2023-01-23T10:35:48;19.10;43.20
49379;DHT22;35254;47.990;-1.608;2023-01-23T10:40:48;19.10;42.90
49379;DHT22;35254;47.990;-1.608;2023-01-23T10:43:33;19.10;43.10
49379;DHT22;35254;47.990;-1.608;2023-01-23T10:45:59;19.10;42.80
49379;DHT22;35254;47.990;-1.608;2023-01-23T10:48:28;19.10;42.80
49379;DHT22;35254;47.990;-1.608;2023-01-23T10:50:54;19.10;42.60
49379;DHT22;35254;47.990;-1.608;2023-01-23T10:53:21;19.20;42.70
49379;DHT22;35254;47.990;-1.608;2023-01-23T10:55:47;19.10;42.80
49379;DHT22;35254;47.990;-1.608;2023-01-23T10:58:36;19.10;42.70
49379;DHT22;35254;47.990;-1.608;2023-01-23T11:01:05;19.10;42.40
49379;DHT22;35254;47.990;-1.608;2023-01-23T11:03:33;19.10;42.50
49379;DHT22;35254;47.990;-1.608;2023-01-23T11:06:05;19.20;42.40
49379;DHT22;35254;47.990;-1.608;2023-01-23T11:08:56;19.20;42.50
49379;DHT22;35254;47.990;-1.608;2023-01-23T11:11:27;19.20;42.40
49379;DHT22;35254;47.990;-1.608;2023-01-23T11:14:14;19.20;42.40
49379;DHT22;35254;47.990;-1.608;2023-01-23T11:16:57;19.20;42.10
49379;DHT22;35254;47.990;-1.608;2023-01-23T11:19:23;19.20;42.00
49379;DHT22;35254;47.990;-1.608;2023-01-23T11:22:00;19.20;41.30
49379;DHT22;35254;47.990;-1.608;2023-01-23T11:32:40;19.30;40.80
49379;DHT22;35254;47.990;-1.608;2023-01-23T11:38:01;19.40;40.70
49379;DHT22;35254;47.990;-1.608;2023-01-23T11:40:28;19.40;40.60
49379;DHT22;35254;47.990;-1.608;2023-01-23T11:42:54;19.40;40.80
49379;DHT22;35254;47.990;-1.608;2023-01-23T11:45:37;19.40;40.60
49379;DHT22;35254;47.990;-1.608;2023-01-23T11:59:07;19.50;40.60
49379;DHT22;35254;47.990;-1.608;2023-01-23T12:01:48;19.50;40.50
49379;DHT22;35254;47.990;-1.608;2023-01-23T12:12:39;19.30;41.10
49379;DHT22;35254;47.990;-1.608;2023-01-23T12:15:41;19.30;41.10
49379;DHT22;35254;47.990;-1.608;2023-01-23T12:21:21;19.20;41.30
49379;DHT22;35254;47.990;-1.608;2023-01-23T12:26:28;19.10;41.50
49379;DHT22;35254;47.990;-1.608;2023-01-23T12:37:43;19.10;40.70
49379;DHT22;35254;47.990;-1.608;2023-01-23T12:40:12;19.20;40.90
49379;DHT22;35254;47.990;-1.608;2023-01-23T12:45:20;19.20;41.10
49379;DHT22;35254;47.990;-1.608;2023-01-23T12:50:37;19.30;41.10
49379;DHT22;35254;47.990;-1.608;2023-01-23T12:53:11;19.30;41.00
49379;DHT22;35254;47.990;-1.608;2023-01-23T12:58:23;19.40;40.90
49379;DHT22;35254;47.990;-1.608;2023-01-23T13:01:11;19.40;40.90
49379;DHT22;35254;47.990;-1.608;2023-01-23T13:03:43;19.50;40.80
49379;DHT22;35254;47.990;-1.608;2023-01-23T13:09:23;19.50;40.70
49379;DHT22;35254;47.990;-1.608;2023-01-23T13:12:03;19.50;40.80
49379;DHT22;35254;47.990;-1.608;2023-01-23T13:16:58;19.50;40.80
49379;DHT22;35254;47.990;-1.608;2023-01-23T13:19:30;19.60;40.90
49379;DHT22;35254;47.990;-1.608;2023-01-23T13:22:24;19.60;40.80
49379;DHT22;35254;47.990;-1.608;2023-01-23T13:24:59;19.60;40.80
49379;DHT22;35254;47.990;-1.608;2023-01-23T13:32:53;19.60;40.70
49379;DHT22;35254;47.990;-1.608;2023-01-23T13:52:20;19.60;40.80
49379;DHT22;35254;47.990;-1.608;2023-01-23T13:55:25;19.60;40.90
49379;DHT22;35254;47.990;-1.608;2023-01-23T13:58:18;19.60;41.00
49379;DHT22;35254;47.990;-1.608;2023-01-23T14:01:40;19.60;41.00
49379;DHT22;35254;47.990;-1.608;2023-01-23T14:04:22;19.60;41.10
49379;DHT22;35254;47.990;-1.608;2023-01-23T14:07:27;19.60;41.10
49379;DHT22;35254;47.990;-1.608;2023-01-23T14:10:14;19.60;41.20
49379;DHT22;35254;47.990;-1.608;2023-01-23T14:12:40;19.50;41.30
49379;DHT22;35254;47.990;-1.608;2023-01-23T14:15:23;19.50;41.20
49379;DHT22;35254;47.990;-1.608;2023-01-23T14:18:23;19.50;41.30
49379;DHT22;35254;47.990;-1.608;2023-01-23T14:20:50;19.50;41.20
49379;DHT22;35254;47.990;-1.608;2023-01-23T14:23:27;19.50;41.10
49379;DHT22;35254;47.990;-1.608;2023-01-23T14:25:53;19.50;41.10
49379;DHT22;35254;47.990;-1.608;2023-01-23T14:28:19;19.50;41.10
49379;DHT22;35254;47.990;-1.608;2023-01-23T14:31:00;19.50;41.10
49379;DHT22;35254;47.990;-1.608;2023-01-23T14:33:26;19.60;41.10
49379;DHT22;35254;47.990;-1.608;2023-01-23T14:35:52;19.60;41.10
49379;DHT22;35254;47.990;-1.608;2023-01-23T14:38:28;19.50;41.20
49379;DHT22;35254;47.990;-1.608;2023-01-23T14:40:55;19.50;41.20
49379;DHT22;35254;47.990;-1.608;2023-01-23T14:43:24;19.50;41.30
49379;DHT22;35254;47.990;-1.608;2023-01-23T14:46:01;19.50;41.50
49379;DHT22;35254;47.990;-1.608;2023-01-23T14:48:32;19.50;42.20
49379;DHT22;35254;47.990;-1.608;2023-01-23T14:56:31;19.40;41.90
49379;DHT22;35254;47.990;-1.608;2023-01-23T14:59:03;19.40;41.90
49379;DHT22;35254;47.990;-1.608;2023-01-23T15:01:30;19.40;41.90
49379;DHT22;35254;47.990;-1.608;2023-01-23T15:04:01;19.40;41.80
49379;DHT22;35254;47.990;-1.608;2023-01-23T15:06:28;19.40;41.90
49379;DHT22;35254;47.990;-1.608;2023-01-23T15:09:13;19.40;41.90
49379;DHT22;35254;47.990;-1.608;2023-01-23T15:11:40;19.30;41.90
49379;DHT22;35254;47.990;-1.608;2023-01-23T15:14:06;19.40;41.90
49379;DHT22;35254;47.990;-1.608;2023-01-23T15:16:44;19.40;41.90
49379;DHT22;35254;47.990;-1.608;2023-01-23T15:19:21;19.30;42.00
49379;DHT22;35254;47.990;-1.608;2023-01-23T15:21:48;19.30;41.90
49379;DHT22;35254;47.990;-1.608;2023-01-23T15:26:55;19.30;41.90
49379;DHT22;35254;47.990;-1.608;2023-01-23T15:29:21;19.30;41.80
49379;DHT22;35254;47.990;-1.608;2023-01-23T15:31:49;19.30;41.80
49379;DHT22;35254;47.990;-1.608;2023-01-23T15:34:17;19.30;41.80
49379;DHT22;35254;47.990;-1.608;2023-01-23T15:39:30;19.30;41.80
49379;DHT22;35254;47.990;-1.608;2023-01-23T15:42:02;19.30;41.80
49379;DHT22;35254;47.990;-1.608;2023-01-23T15:44:30;19.30;41.90
49379;DHT22;35254;47.990;-1.608;2023-01-23T15:46:57;19.30;41.80
49379;DHT22;35254;47.990;-1.608;2023-01-23T15:49:26;19.30;41.80
49379;DHT22;35254;47.990;-1.608;2023-01-23T15:51:57;19.30;41.80
49379;DHT22;35254;47.990;-1.608;2023-01-23T15:54:29;19.30;41.80
49379;DHT22;35254;47.990;-1.608;2023-01-23T15:56:56;19.30;41.80
49379;DHT22;35254;47.990;-1.608;2023-01-23T15:59:21;19.20;41.80
49379;DHT22;35254;47.990;-1.608;2023-01-23T16:01:47;19.20;41.80
49379;DHT22;35254;47.990;-1.608;2023-01-23T16:04:13;19.30;41.70
49379;DHT22;35254;47.990;-1.608;2023-01-23T16:06:38;19.30;41.70
49379;DHT22;35254;47.990;-1.608;2023-01-23T16:09:05;19.30;41.60
49379;DHT22;35254;47.990;-1.608;2023-01-23T16:11:33;19.30;41.70
49379;DHT22;35254;47.990;-1.608;2023-01-23T16:13:59;19.30;41.50
49379;DHT22;35254;47.990;-1.608;2023-01-23T16:16:27;19.30;41.40
49379;DHT22;35254;47.990;-1.608;2023-01-23T16:18:53;19.30;41.40
49379;DHT22;35254;47.990;-1.608;2023-01-23T16:21:23;19.30;41.40
49379;DHT22;35254;47.990;-1.608;2023-01-23T16:23:51;19.30;41.40
49379;DHT22;35254;47.990;-1.608;2023-01-23T16:26:17;19.30;41.40
49379;DHT22;35254;47.990;-1.608;2023-01-23T16:28:44;19.20;41.30
49379;DHT22;35254;47.990;-1.608;2023-01-23T16:31:15;19.30;41.20
49379;DHT22;35254;47.990;-1.608;2023-01-23T16:33:41;19.20;41.20
49379;DHT22;35254;47.990;-1.608;2023-01-23T16:36:14;19.20;41.10
49379;DHT22;35254;47.990;-1.608;2023-01-23T16:38:43;19.30;41.20
49379;DHT22;35254;47.990;-1.608;2023-01-23T16:41:12;19.20;41.10
49379;DHT22;35254;47.990;-1.608;2023-01-23T16:43:38;19.20;41.00
49379;DHT22;35254;47.990;-1.608;2023-01-23T16:46:04;19.30;41.00
49379;DHT22;35254;47.990;-1.608;2023-01-23T16:48:30;19.20;41.10
49379;DHT22;35254;47.990;-1.608;2023-01-23T16:50:59;19.20;41.00
49379;DHT22;35254;47.990;-1.608;2023-01-23T16:53:37;19.20;41.00
49379;DHT22;35254;47.990;-1.608;2023-01-23T16:56:05;19.20;41.10
49379;DHT22;35254;47.990;-1.608;2023-01-23T16:58:36;19.20;41.10
49379;DHT22;35254;47.990;-1.608;2023-01-23T17:01:08;19.20;41.10
49379;DHT22;35254;47.990;-1.608;2023-01-23T17:03:37;19.20;40.90
49379;DHT22;35254;47.990;-1.608;2023-01-23T17:06:09;19.20;41.00
49379;DHT22;35254;47.990;-1.608;2023-01-23T17:08:35;19.20;41.10
49379;DHT22;35254;47.990;-1.608;2023-01-23T17:11:03;19.20;41.30
49379;DHT22;35254;47.990;-1.608;2023-01-23T17:13:31;19.20;41.10
49379;DHT22;35254;47.990;-1.608;2023-01-23T17:15:59;19.20;41.20
49379;DHT22;35254;47.990;-1.608;2023-01-23T17:18:27;19.20;41.20
49379;DHT22;35254;47.990;-1.608;2023-01-23T17:20:55;19.10;41.10